Peru, KS

12:18 AM CDT on May 07, 2015 (GMT -0500)
Coffeyville Municipal | | Change Station
CLOSE
Current Station
Airport
Location: Coffeyville,
Elevation: 751 ft
Nearby Weather Stations
Active Advisory: Tornado Watch Active Notice: Public Information Statement

Elev 751 ft 37.09 °N, 95.57 °W | Updated 26 minutes ago

Partly Cloudy
Partly Cloudy
70 °F
Feels Like 70 °F
N
13
Wind Variable Wind from SSE
Gusts 24 mph

Today
High -- | Low -- °F
--% Chance of Precip.
Yesterday
High -- | Low -- °F
Precip. -- in
6:24 AM 8:18 PM
Waning Gibbous, 90% visible
Pressure 29.86 in
Visibility 10.0 miles
Clouds Clear
Dew Point 57 °F
Humidity 63%
Rainfall 0.56 in
Snow Depth Not available.
UV 0 out of 12
Pollen .90 out of 12
Air Quality Not available.
Flu Activity Sporadic
METAR KCFV 070452Z AUTO 16011G21KT 10SM CLR 21/14 A2987 RMK AO2 SLP109 T02110139 TSNO $

More Conditions Fewer Conditions

Pressure 29.86 in
Visibility 10.0 miles
Clouds Clear
Dew Point 57 °F
Humidity 63%
Rainfall 0.56 in
Snow Depth Not available.
UV 0 out of 12
Pollen .90 out of 12
Air Quality Not available.
Flu Activity Sporadic
METAR KCFV 070452Z AUTO 16011G21KT 10SM CLR 21/14 A2987 RMK AO2 SLP109 T02110139 TSNO $

More Conditions Fewer Conditions

10-Day Weather Forecast

Almanac

Astronomy

May. 07, 2015 Rise Set
Actual Time
Civil Twilight
Nautical Twilight
Astronomical Twilight
Moon
Length of Visible Light
Length of Day
Tomorrow will be .
, % of the Moon is Illuminated

Today's Extremes

State Highs State Lows

Community

WunderPhotos

Upload Photos

1,819,125 photos uploaded!

WunderBlogs® & News

Nearby

Air Quality

  Air Quality AQ Index Pollutant
Not available.

Snow Depth

Station Depth Elevation

Earthquake Activity

City Distance Mag. Time & Date
Minimum magnitude displayed is 2.5.

Coastal Water Temperatures

Place Temperature

Stations

Nearby Weather Stations

Station Location Temp. Windchill Dew Point Humidity Wind Precip. Elev Updated Type
                   
Tornado Watch
Statement as of 12:03 AM CDT on May 07, 2015

Tornado Watch 136 remains in effect until 200 am CDT for the
following locations


KS
. Kansas counties included are

Butler Chase Chautauqua
Clay cloud Cowley
Dickinson Elk Geary
Greenwood Harper Jewell
Kingman Lyon Marshall
Mitchell Morris Nemaha
Ottawa Pottawatomie Republic
Riley Sedgwick Sumner
Wabaunsee Washington